Time;durP1;ratioP1;P1;durP2;ratioP2;P2;SDS_P1;SDS_P2;PMS_P1;PMS_P2;Temp;Humidity;BMP_temperature;BMP_pressure;BME280_temperature;BME280_humidity;BME280_pressure;Samples;Min_cycle;Max_cycle;Signal;HPM_P1;HPM_P2
2022/01/02 00:00:14;;;;;;;8.63;4.80;;;11.70;99.90;;;;;;5073431;28;20492;-80
2022/01/02 00:02:41;;;;;;;12.40;5.00;;;11.70;99.90;;;;;;5072967;28;20040;-80
2022/01/02 00:05:11;;;;;;;10.38;5.50;;;11.70;99.90;;;;;;5090355;28;20040;-80
2022/01/02 00:07:53;;;;;;;9.10;5.18;;;11.60;99.90;;;;;;5089671;28;20063;-80
2022/01/02 00:10:21;;;;;;;11.82;5.22;;;11.70;99.90;;;;;;5089995;28;20506;-80
2022/01/02 00:12:56;;;;;;;9.15;4.93;;;11.70;99.90;;;;;;5089568;28;20051;-80
2022/01/02 00:15:23;;;;;;;10.23;5.25;;;11.80;99.90;;;;;;5089592;28;20108;-80
2022/01/02 00:18:08;;;;;;;13.38;5.72;;;11.80;99.90;;;;;;5072670;28;20103;-80
2022/01/02 00:20:43;;;;;;;10.18;5.28;;;11.70;99.90;;;;;;5090033;28;20329;-79
2022/01/02 00:23:09;;;;;;;10.60;5.03;;;11.70;99.90;;;;;;5075164;28;20044;-79
2022/01/02 00:25:41;;;;;;;10.15;5.13;;;11.70;99.90;;;;;;5089352;28;20054;-80
2022/01/02 00:28:10;;;;;;;11.68;5.28;;;11.70;99.90;;;;;;5072622;28;20507;-81
2022/01/02 00:30:37;;;;;;;9.82;4.80;;;11.70;99.90;;;;;;5072533;28;20185;-80
2022/01/02 00:33:03;;;;;;;10.40;5.50;;;11.70;99.90;;;;;;5072637;28;20075;-80
2022/01/02 00:35:30;;;;;;;8.88;5.00;;;11.70;99.90;;;;;;5089037;28;20127;-80
2022/01/02 00:37:56;;;;;;;12.70;5.15;;;11.70;99.90;;;;;;5072110;28;20079;-80
2022/01/02 00:40:22;;;;;;;;;;;11.70;99.90;;;;;;5072618;28;20492;-80
2022/01/02 00:42:55;;;;;;;11.75;5.50;;;11.70;99.90;;;;;;5072162;28;19977;-80
2022/01/02 00:45:26;;;;;;;12.40;5.53;;;11.70;99.90;;;;;;5072427;28;20508;-80
2022/01/02 00:48:04;;;;;;;11.43;5.50;;;11.60;99.90;;;;;;5088591;28;20062;-80
2022/01/02 00:50:37;;;;;;;13.27;5.82;;;11.60;99.90;;;;;;5089269;28;20470;-80
2022/01/02 00:53:05;;;;;;;13.10;6.00;;;11.60;99.90;;;;;;5072321;28;20495;-80
2022/01/02 00:55:34;;;;;;;12.38;5.70;;;11.50;99.90;;;;;;5089249;28;20039;-80
2022/01/02 00:58:05;;;;;;;10.55;5.72;;;11.60;99.90;;;;;;5088311;28;20052;-80
2022/01/02 01:00:32;;;;;;;11.93;6.00;;;11.50;99.90;;;;;;5088818;28;20044;-79
2022/01/02 01:03:09;;;;;;;14.25;5.85;;;11.50;99.90;;;;;;5071368;28;20036;-79
2022/01/02 01:05:37;;;;;;;16.40;6.20;;;11.60;99.90;;;;;;5088541;28;20039;-79
2022/01/02 01:08:05;;;;;;;17.90;5.97;;;11.60;99.90;;;;;;5088523;28;20047;-79
2022/01/02 01:10:39;;;;;;;13.25;5.90;;;11.60;99.90;;;;;;5071551;28;20036;-79
2022/01/02 01:13:08;;;;;;;14.85;6.25;;;11.60;99.90;;;;;;5088206;28;20054;-79
2022/01/02 01:15:35;;;;;;;13.30;6.05;;;11.50;99.90;;;;;;5072049;28;20081;-78
2022/01/02 01:18:03;;;;;;;12.65;6.60;;;11.50;99.90;;;;;;5088267;28;20403;-79
2022/01/02 01:20:31;;;;;;;16.85;6.90;;;11.50;99.90;;;;;;5071324;28;20052;-79
2022/01/02 01:22:57;;;;;;;13.13;6.05;;;11.40;99.90;;;;;;5087950;28;20104;-79
2022/01/02 01:25:24;;;;;;;14.13;6.22;;;11.50;99.90;;;;;;5070880;28;20450;-79
2022/01/02 01:27:52;;;;;;;14.02;7.30;;;11.40;99.90;;;;;;5071376;28;20044;-78
2022/01/02 01:30:21;;;;;;;15.55;6.47;;;11.50;99.90;;;;;;5055169;28;20040;-79
2022/01/02 01:32:47;;;;;;;13.52;7.20;;;11.60;99.90;;;;;;5088250;28;20453;-79
2022/01/02 01:35:14;;;;;;;;;;;11.50;99.90;;;;;;5072256;28;20040;-79
2022/01/02 01:37:40;;;;;;;12.93;6.93;;;11.60;99.90;;;;;;5087949;28;19916;-79
2022/01/02 01:40:09;;;;;;;11.32;6.45;;;11.60;99.90;;;;;;5071245;28;20196;-79
2022/01/02 01:42:41;;;;;;;15.00;6.53;;;11.60;99.90;;;;;;5070895;28;20043;-79
2022/01/02 01:47:45;;;;;;;17.75;6.95;;;11.70;99.90;;;;;;5088026;28;20059;-79
2022/01/02 01:50:11;;;;;;;12.80;7.20;;;11.60;99.90;;;;;;5089575;28;20506;-79
2022/01/02 01:52:37;;;;;;;16.17;7.80;;;11.60;99.90;;;;;;5075447;28;20044;-79
2022/01/02 01:55:04;;;;;;;19.05;7.28;;;11.60;99.90;;;;;;5075468;28;20050;-79
2022/01/02 01:57:31;;;;;;;15.77;8.02;;;11.50;99.90;;;;;;5075059;28;20043;-79
2022/01/02 01:59:57;;;;;;;13.50;6.88;;;11.50;99.90;;;;;;5091886;28;20040;-79
2022/01/02 02:02:23;;;;;;;16.73;7.38;;;11.60;99.90;;;;;;5074999;28;20130;-79
2022/01/02 02:04:49;;;;;;;21.73;8.13;;;11.60;99.90;;;;;;5108643;28;20040;-79
2022/01/02 02:07:15;;;;;;;17.95;8.85;;;11.50;99.90;;;;;;5058468;28;20077;-79
2022/01/02 02:12:26;;;;;;;20.10;8.15;;;11.50;99.90;;;;;;5091983;28;20381;-78
2022/01/02 02:14:52;;;;;;;;;;;11.50;99.90;;;;;;5092271;28;20043;-79
2022/01/02 02:17:18;;;;;;;17.88;8.20;;;11.40;99.90;;;;;;5075034;28;19915;-79
2022/01/02 02:19:43;;;;;;;20.98;9.23;;;11.40;99.90;;;;;;5074967;28;20040;-79
2022/01/02 02:22:09;;;;;;;21.88;9.10;;;11.50;99.90;;;;;;5075319;28;20163;-79
2022/01/02 02:24:35;;;;;;;21.90;9.32;;;11.50;99.90;;;;;;5110776;28;20039;-79
2022/01/02 02:27:01;;;;;;;17.98;9.77;;;11.50;99.90;;;;;;5062340;28;20456;-78
2022/01/02 02:29:27;;;;;;;23.77;9.93;;;11.40;99.90;;;;;;5078168;28;20043;-78
2022/01/02 02:31:55;;;;;;;19.40;8.87;;;11.40;99.90;;;;;;5077888;28;20039;-77
2022/01/02 02:34:20;;;;;;;21.83;8.48;;;11.30;99.90;;;;;;5078719;28;20667;-78
2022/01/02 02:36:46;;;;;;;18.90;9.68;;;11.40;99.90;;;;;;5062274;28;20031;-78
2022/01/02 02:39:12;;;;;;;21.10;10.52;;;11.30;99.90;;;;;;5095668;28;20165;-78
2022/01/02 02:41:40;;;;;;;23.92;9.65;;;11.30;99.90;;;;;;5095032;28;20111;-78
2022/01/02 02:44:20;;;;;;;21.05;9.50;;;11.20;99.90;;;;;;5078304;28;20039;-78
2022/01/02 02:49:30;;;;;;;22.27;9.88;;;11.30;99.90;;;;;;5097820;28;20463;-77
2022/01/02 02:52:02;;;;;;;19.83;10.18;;;11.20;99.90;;;;;;5094841;28;20036;-77
2022/01/02 02:54:31;;;;;;;16.25;8.68;;;11.10;99.90;;;;;;5078728;28;20042;-77
2022/01/02 02:56:59;;;;;;;23.30;11.00;;;11.20;99.90;;;;;;5094630;28;20036;-77
2022/01/02 02:59:30;;;;;;;21.25;11.68;;;11.30;99.90;;;;;;5094398;28;20063;-77
2022/01/02 03:01:56;;;;;;;23.23;10.25;;;11.20;99.90;;;;;;5093304;28;20035;-77
2022/01/02 03:04:23;;;;;;;;;;;11.20;99.90;;;;;;5077975;28;20040;-77
2022/01/02 03:06:49;;;;;;;22.50;10.00;;;11.20;99.90;;;;;;5094525;28;20287;-77
2022/01/02 03:09:17;;;;;;;24.92;10.98;;;11.10;99.90;;;;;;5077600;28;20035;-77
2022/01/02 03:11:43;;;;;;;23.63;11.57;;;11.10;99.90;;;;;;5094254;28;20044;-77
2022/01/02 03:14:11;;;;;;;27.30;11.05;;;11.10;99.90;;;;;;5094032;28;20037;-78
2022/01/02 03:16:46;;;;;;;26.75;12.13;;;11.10;99.90;;;;;;5094217;28;20040;-81
2022/01/02 03:19:12;;;;;;;22.75;11.02;;;11.00;99.90;;;;;;5093622;28;20035;-78
2022/01/02 03:21:38;;;;;;;24.95;11.32;;;11.00;99.90;;;;;;5094297;28;20050;-76
2022/01/02 03:24:03;;;;;;;23.13;11.67;;;11.10;99.90;;;;;;5077534;28;20045;-78
2022/01/02 03:26:29;;;;;;;25.15;11.45;;;11.00;99.90;;;;;;5093889;28;20297;-78
2022/01/02 03:28:55;;;;;;;28.85;12.27;;;11.00;99.90;;;;;;5093595;28;20066;-76
2022/01/02 03:31:21;;;;;;;25.27;10.85;;;11.00;99.90;;;;;;5093988;28;20039;-77
2022/01/02 03:33:46;;;;;;;23.50;10.73;;;10.90;99.90;;;;;;5093880;28;20380;-76
2022/01/02 03:36:12;;;;;;;28.70;11.18;;;11.00;99.90;;;;;;5076889;28;20044;-77
2022/01/02 03:38:38;;;;;;;27.25;11.65;;;11.00;99.90;;;;;;5110517;28;20039;-76
2022/01/02 03:41:04;;;;;;;19.63;10.43;;;11.00;99.90;;;;;;5077035;28;20050;-76
2022/01/02 03:43:30;;;;;;;25.77;11.38;;;11.00;99.90;;;;;;5093705;28;20403;-76
2022/01/02 03:45:55;;;;;;;23.52;10.65;;;11.00;99.90;;;;;;5093237;28;20042;-76
2022/01/02 03:48:21;;;;;;;22.15;10.50;;;11.00;99.90;;;;;;5076703;28;20062;-77
2022/01/02 03:50:47;;;;;;;20.73;10.30;;;11.10;99.90;;;;;;5077084;28;20118;-77
2022/01/02 03:53:12;;;;;;;24.20;11.70;;;11.10;99.90;;;;;;5076681;28;20091;-77
2022/01/02 03:55:39;;;;;;;23.95;10.35;;;11.10;99.90;;;;;;5093273;28;20035;-77
2022/01/02 03:58:05;;;;;;;24.38;9.98;;;11.10;99.90;;;;;;5093148;28;20127;-77
2022/01/02 04:00:31;;;;;;;25.63;11.30;;;11.10;99.90;;;;;;5075976;28;20469;-77
2022/01/02 04:02:57;;;;;;;25.50;10.82;;;11.10;99.90;;;;;;5092747;28;20044;-77
2022/01/02 04:05:22;;;;;;;16.67;8.40;;;11.00;99.90;;;;;;5109641;28;20434;-77
2022/01/02 04:07:48;;;;;;;26.80;10.23;;;11.20;99.90;;;;;;5076521;28;20096;-77
2022/01/02 04:10:17;;;;;;;17.17;9.10;;;11.20;99.90;;;;;;5092836;28;20042;-77
2022/01/02 04:12:43;;;;;;;20.50;9.40;;;11.20;99.90;;;;;;5092425;28;20043;-76
2022/01/02 04:15:11;;;;;;;30.08;10.40;;;11.20;99.90;;;;;;5076027;28;20122;-77
2022/01/02 04:17:37;;;;;;;22.10;8.93;;;11.30;99.90;;;;;;5076197;28;20135;-77
2022/01/02 04:20:05;;;;;;;21.60;9.52;;;11.30;99.90;;;;;;5109459;28;20043;-77
2022/01/02 04:22:31;;;;;;;24.38;10.27;;;11.40;99.90;;;;;;5075610;28;20347;-77
2022/01/02 04:24:57;;;;;;;23.08;9.43;;;11.40;99.90;;;;;;5092475;28;20467;-77
2022/01/02 04:27:24;;;;;;;19.63;8.98;;;11.30;99.90;;;;;;5092440;28;20522;-77
2022/01/02 04:29:50;;;;;;;25.73;9.77;;;11.30;99.90;;;;;;5092878;28;20103;-77
2022/01/02 04:32:16;;;;;;;24.17;10.38;;;11.30;99.90;;;;;;5092684;28;20569;-77
2022/01/02 04:34:42;;;;;;;20.98;8.90;;;11.20;99.90;;;;;;5109653;28;20116;-77
2022/01/02 04:37:10;;;;;;;26.08;9.38;;;11.20;99.90;;;;;;5092382;28;20064;-76
2022/01/02 04:39:35;;;;;;;26.08;9.38;;;11.20;99.90;;;;;;5092847;28;20130;-77
2022/01/02 04:42:01;;;;;;;21.25;9.70;;;11.20;99.90;;;;;;5092591;28;20135;-76
2022/01/02 04:44:27;;;;;;;23.95;9.38;;;11.20;99.90;;;;;;5092394;28;20039;-76
2022/01/02 04:46:53;;;;;;;17.38;7.78;;;11.20;99.90;;;;;;5075665;28;20096;-76
2022/01/02 04:49:19;;;;;;;20.20;8.95;;;11.20;99.90;;;;;;5075708;28;20031;-76
2022/01/02 04:51:45;;;;;;;29.05;8.98;;;11.30;99.90;;;;;;5092303;28;20039;-76
2022/01/02 04:54:11;;;;;;;20.98;8.32;;;11.20;99.90;;;;;;5092436;28;20499;-76
2022/01/02 04:56:37;;;;;;;18.40;8.30;;;11.20;99.90;;;;;;5092475;28;20130;-76
2022/01/02 04:59:03;;;;;;;21.63;8.50;;;11.30;99.90;;;;;;5092213;28;20664;-76
2022/01/02 05:01:28;;;;;;;23.13;8.68;;;11.40;99.90;;;;;;5091941;28;20035;-76
2022/01/02 05:03:54;;;;;;;20.90;8.75;;;11.40;99.90;;;;;;5075179;28;20046;-76
2022/01/02 05:06:20;;;;;;;22.98;9.02;;;11.30;99.90;;;;;;5092078;28;20046;-76
2022/01/02 05:08:46;;;;;;;18.13;8.10;;;11.20;99.90;;;;;;5092179;28;20048;-78
2022/01/02 05:11:16;;;;;;;23.10;8.70;;;11.30;99.90;;;;;;5091764;28;20411;-78
2022/01/02 05:13:42;;;;;;;22.88;8.43;;;11.30;99.90;;;;;;5075198;28;20043;-77
2022/01/02 05:16:08;;;;;;;23.48;8.35;;;11.30;99.90;;;;;;5092201;28;20096;-77
2022/01/02 05:18:34;;;;;;;17.05;7.20;;;11.30;99.90;;;;;;5074856;28;20039;-77
2022/01/02 05:21:00;;;;;;;16.33;7.30;;;11.40;99.90;;;;;;5074654;28;20035;-77
2022/01/02 05:23:29;;;;;;;20.77;7.78;;;11.40;99.90;;;;;;5075229;28;20046;-77
2022/01/02 05:25:56;;;;;;;22.17;7.95;;;11.40;99.90;;;;;;5090885;28;20151;-77
2022/01/02 05:28:23;;;;;;;16.85;7.25;;;11.40;99.90;;;;;;5074791;28;20122;-77
2022/01/02 05:30:49;;;;;;;18.83;6.70;;;11.30;99.90;;;;;;5091609;28;20114;-77
2022/01/02 05:33:15;;;;;;;18.98;7.05;;;11.40;99.90;;;;;;5091313;28;20123;-77
2022/01/02 05:35:41;;;;;;;17.23;7.60;;;11.40;99.90;;;;;;5091576;28;20467;-78
2022/01/02 05:38:09;;;;;;;14.20;6.38;;;11.40;99.90;;;;;;5091668;28;20044;-78
2022/01/02 05:40:35;;;;;;;19.63;6.88;;;11.40;99.90;;;;;;5091603;28;20089;-77
2022/01/02 05:43:03;;;;;;;17.88;6.43;;;11.40;99.90;;;;;;5091258;28;20043;-77
2022/01/02 05:45:29;;;;;;;16.13;6.03;;;11.40;99.90;;;;;;5091482;28;20063;-78
2022/01/02 05:47:55;;;;;;;14.10;5.22;;;11.50;99.90;;;;;;5091739;28;20078;-77
2022/01/02 05:50:21;;;;;;;13.82;5.18;;;11.50;99.90;;;;;;5091491;28;20075;-77
2022/01/02 05:52:46;;;;;;;16.35;5.78;;;11.70;99.90;;;;;;5091398;28;20035;-77
2022/01/02 05:55:13;;;;;;;17.75;6.00;;;11.70;99.90;;;;;;5074393;28;20043;-77
2022/01/02 05:57:38;;;;;;;19.13;6.25;;;11.70;99.90;;;;;;5091504;28;20562;-77
2022/01/02 06:00:06;;;;;;;16.02;5.53;;;11.70;99.90;;;;;;5091232;28;20134;-77
2022/01/02 06:02:31;;;;;;;14.05;6.40;;;11.70;99.90;;;;;;5074022;28;20039;-77
2022/01/02 06:04:58;;;;;;;16.13;5.60;;;11.80;99.90;;;;;;5091434;28;20062;-77
2022/01/02 06:07:24;;;;;;;;;;;11.80;99.90;;;;;;5074715;28;20165;-77
2022/01/02 06:09:49;;;;;;;15.77;5.72;;;11.70;99.90;;;;;;5091190;28;20002;-77
2022/01/02 06:12:15;;;;;;;18.40;5.72;;;11.80;99.90;;;;;;5090971;28;20612;-77
2022/01/02 06:14:41;;;;;;;17.73;6.15;;;11.70;99.90;;;;;;5074583;28;20395;-77
2022/01/02 06:17:07;;;;;;;13.98;5.38;;;11.80;99.90;;;;;;5090886;28;20050;-77
2022/01/02 06:19:33;;;;;;;20.63;6.35;;;11.90;99.90;;;;;;5074713;28;20055;-77
2022/01/02 06:22:00;;;;;;;15.80;5.60;;;11.80;99.90;;;;;;5074434;28;20043;-77
2022/01/02 06:24:26;;;;;;;15.88;5.55;;;11.80;99.90;;;;;;5108143;28;20050;-77
2022/01/02 06:26:51;;;;;;;12.02;5.63;;;11.80;99.90;;;;;;5070885;28;20450;-77
2022/01/02 06:29:17;;;;;;;12.02;5.10;;;11.80;99.90;;;;;;5104571;28;20042;-77
2022/01/02 06:31:43;;;;;;;14.23;5.32;;;11.80;99.90;;;;;;5104371;28;20504;-77
2022/01/02 06:34:08;;;;;;;15.10;5.57;;;11.90;99.90;;;;;;5104446;28;20406;-77
2022/01/02 06:36:34;;;;;;;11.60;5.40;;;11.80;99.90;;;;;;5106440;28;20082;-77
2022/01/02 06:39:02;;;;;;;15.52;5.45;;;11.90;99.90;;;;;;5108545;28;20278;-76
2022/01/02 06:41:28;;;;;;;15.68;5.72;;;11.90;99.90;;;;;;5074747;28;20545;-77
2022/01/02 06:43:54;;;;;;;16.30;6.03;;;11.90;99.90;;;;;;5108563;28;20044;-76
2022/01/02 06:46:20;;;;;;;15.13;4.90;;;11.90;99.90;;;;;;5107754;28;20093;-77
2022/01/02 06:48:46;;;;;;;10.20;4.35;;;11.90;99.90;;;;;;5091112;28;20070;-76
2022/01/02 06:51:12;;;;;;;15.50;4.70;;;12.00;99.90;;;;;;5074257;28;20449;-77
2022/01/02 06:53:38;;;;;;;13.48;4.88;;;12.00;99.90;;;;;;5108348;28;20515;-77
2022/01/02 06:56:03;;;;;;;15.07;3.97;;;11.90;99.90;;;;;;5090866;28;20079;-77
2022/01/02 06:58:30;;;;;;;14.07;4.32;;;12.00;99.90;;;;;;5074400;28;20064;-77
2022/01/02 07:00:56;;;;;;;10.20;4.00;;;12.00;99.90;;;;;;5073983;28;20040;-76
2022/01/02 07:03:22;;;;;;;12.85;3.80;;;12.00;99.90;;;;;;5090906;28;20117;-77
2022/01/02 07:05:48;;;;;;;18.65;5.10;;;12.10;99.90;;;;;;5090869;28;20065;-77
2022/01/02 07:08:14;;;;;;;11.07;3.65;;;12.20;99.90;;;;;;5090720;28;20040;-76
2022/01/02 07:10:40;;;;;;;8.93;3.35;;;12.10;99.90;;;;;;5107688;28;20123;-77
2022/01/02 07:13:06;;;;;;;13.23;3.67;;;12.20;99.90;;;;;;5090547;28;20051;-76
2022/01/02 07:15:32;;;;;;;11.18;3.03;;;12.10;99.90;;;;;;5090704;28;20035;-77
2022/01/02 07:17:57;;;;;;;11.50;2.92;;;12.10;99.90;;;;;;5108113;28;20040;-76
2022/01/02 07:20:23;;;;;;;9.80;3.17;;;12.20;99.90;;;;;;5073473;28;20048;-76
2022/01/02 07:22:49;;;;;;;7.15;2.95;;;12.30;99.90;;;;;;5107348;28;20043;-76
2022/01/02 07:25:15;;;;;;;10.88;2.83;;;12.30;99.90;;;;;;5107331;28;20083;-76
2022/01/02 07:27:40;;;;;;;10.25;2.92;;;12.30;99.90;;;;;;5090479;28;20478;-76
2022/01/02 07:30:08;;;;;;;11.43;2.95;;;12.30;99.90;;;;;;5107355;28;20043;-76
2022/01/02 07:32:35;;;;;;;9.70;2.60;;;12.40;99.90;;;;;;5074050;28;20040;-76
2022/01/02 07:35:06;;;;;;;8.10;3.10;;;12.40;99.90;;;;;;5073838;28;20044;-76
2022/01/02 07:37:34;;;;;;;8.43;2.90;;;12.40;99.90;;;;;;5074298;28;20397;-76
2022/01/02 07:40:04;;;;;;;7.72;2.80;;;12.40;99.90;;;;;;5074105;28;20040;-76
2022/01/02 07:42:30;;;;;;;8.43;2.58;;;12.50;99.90;;;;;;5089540;28;20052;-76
2022/01/02 07:44:56;;;;;;;9.85;2.90;;;12.40;99.90;;;;;;5073185;28;20047;-76
2022/01/02 07:47:22;;;;;;;6.00;2.58;;;12.30;99.90;;;;;;5073034;28;20388;-76
2022/01/02 07:49:47;;;;;;;6.00;3.22;;;12.40;99.90;;;;;;5072932;28;20128;-76
2022/01/02 07:52:13;;;;;;;9.93;2.85;;;12.30;99.90;;;;;;5106640;28;20070;-76
2022/01/02 07:54:39;;;;;;;10.60;3.30;;;12.30;99.90;;;;;;5107046;28;20110;-76
2022/01/02 07:57:05;;;;;;;5.93;2.72;;;12.30;99.90;;;;;;5073077;28;20474;-76
2022/01/02 07:59:31;;;;;;;;;;;12.50;99.90;;;;;;5090151;28;20083;-76
2022/01/02 08:01:57;;;;;;;8.27;2.88;;;12.40;99.90;;;;;;5089869;28;19963;-76
2022/01/02 08:04:22;;;;;;;10.00;3.17;;;12.40;99.90;;;;;;5106203;28;20040;-76
2022/01/02 08:06:48;;;;;;;7.97;3.50;;;12.50;99.90;;;;;;5106451;28;20093;-76
2022/01/02 08:09:14;;;;;;;8.73;3.28;;;12.40;99.90;;;;;;5089455;28;20395;-76
2022/01/02 08:11:40;;;;;;;5.60;2.88;;;12.30;99.90;;;;;;5072622;28;20439;-77
2022/01/02 08:14:06;;;;;;;9.23;3.58;;;12.30;99.90;;;;;;5089796;28;20551;-77
2022/01/02 08:16:32;;;;;;;8.73;3.63;;;12.30;99.90;;;;;;5089236;28;20507;-76
2022/01/02 08:18:58;;;;;;;12.82;3.97;;;12.10;99.90;;;;;;5089628;28;20052;-77
2022/01/02 08:21:24;;;;;;;9.55;3.75;;;12.20;99.90;;;;;;5072314;28;20051;-77
2022/01/02 08:23:49;;;;;;;6.50;3.30;;;12.00;99.90;;;;;;5089133;28;20032;-77
2022/01/02 08:26:15;;;;;;;8.82;4.15;;;12.00;99.90;;;;;;5071697;28;20080;-75
2022/01/02 08:28:41;;;;;;;8.35;3.47;;;12.00;99.90;;;;;;5088626;28;20047;-74
2022/01/02 08:31:07;;;;;;;11.93;4.30;;;12.00;99.90;;;;;;5106246;28;20028;-74
2022/01/02 08:33:32;;;;;;;15.07;4.32;;;11.80;99.90;;;;;;5055200;28;20086;-74
2022/01/02 08:35:58;;;;;;;11.50;4.80;;;11.70;99.90;;;;;;5105912;28;20044;-74
2022/01/02 08:38:24;;;;;;;11.30;4.35;;;11.70;99.90;;;;;;5088262;28;20040;-73
2022/01/02 08:40:50;;;;;;;11.90;4.97;;;11.70;99.90;;;;;;5088322;28;20178;-73
2022/01/02 08:43:15;;;;;;;13.95;5.25;;;11.50;99.90;;;;;;5088243;28;20089;-74
2022/01/02 08:45:41;;;;;;;14.48;5.30;;;11.50;99.90;;;;;;5072009;28;20093;-74
2022/01/02 08:48:07;;;;;;;14.23;5.18;;;11.40;99.90;;;;;;5072124;28;20076;-74
2022/01/02 08:50:33;;;;;;;12.63;5.45;;;11.40;99.90;;;;;;5088113;28;20130;-74
2022/01/02 08:52:59;;;;;;;13.80;5.95;;;11.40;99.90;;;;;;5088707;28;20040;-74
2022/01/02 08:55:24;;;;;;;11.73;5.88;;;11.40;99.90;;;;;;5054045;28;20050;-74
2022/01/02 08:57:50;;;;;;;12.48;5.85;;;11.30;99.90;;;;;;5105172;28;20079;-75
2022/01/02 09:00:16;;;;;;;10.93;5.72;;;11.30;99.90;;;;;;5070418;28;20044;-74
2022/01/02 09:02:42;;;;;;;10.02;5.80;;;11.30;99.90;;;;;;5088235;28;20040;-75
2022/01/02 09:05:08;;;;;;;13.40;5.40;;;11.30;99.90;;;;;;5105627;28;20455;-75
2022/01/02 09:07:34;;;;;;;;;;;11.30;99.90;;;;;;5071615;28;20032;-75
2022/01/02 09:10:00;;;;;;;10.75;5.78;;;11.30;99.90;;;;;;5088741;28;20057;-77
2022/01/02 09:12:26;;;;;;;13.07;6.07;;;11.30;99.90;;;;;;5071475;28;20044;-75
2022/01/02 09:14:52;;;;;;;13.38;5.78;;;11.30;99.90;;;;;;5088328;28;20040;-75
2022/01/02 09:17:18;;;;;;;12.75;6.15;;;11.20;99.90;;;;;;5071570;28;20057;-75
2022/01/02 09:19:44;;;;;;;14.23;6.72;;;11.30;99.90;;;;;;5088181;28;20056;-75
2022/01/02 09:22:10;;;;;;;11.95;6.15;;;11.20;99.90;;;;;;5072142;28;20126;-75
2022/01/02 09:24:35;;;;;;;13.52;5.68;;;11.30;99.90;;;;;;5071160;28;20097;-75
2022/01/02 09:27:05;;;;;;;9.82;5.53;;;11.40;99.90;;;;;;5104629;28;20155;-75
2022/01/02 09:29:31;;;;;;;10.50;5.63;;;11.30;99.90;;;;;;5104778;28;20411;-75
2022/01/02 09:31:57;;;;;;;11.27;6.00;;;11.30;99.90;;;;;;5071415;28;20040;-75
2022/01/02 09:34:22;;;;;;;10.27;5.80;;;11.20;99.90;;;;;;5104674;28;20044;-75
2022/01/02 09:36:48;;;;;;;10.50;5.82;;;11.40;99.90;;;;;;5087953;28;20258;-75
2022/01/02 09:39:15;;;;;;;11.13;6.32;;;11.30;99.90;;;;;;5104760;28;20042;-75
2022/01/02 09:41:41;;;;;;;10.50;5.47;;;11.30;99.90;;;;;;5104864;28;20086;-75
2022/01/02 09:44:07;;;;;;;9.63;6.00;;;11.30;99.90;;;;;;5088062;28;20080;-75
2022/01/02 09:46:34;;;;;;;9.73;6.03;;;11.30;99.90;;;;;;5088035;28;20911;-75
2022/01/02 09:49:02;;;;;;;14.25;6.88;;;11.30;99.90;;;;;;5088348;28;20488;-75
2022/01/02 09:51:28;;;;;;;13.75;6.95;;;11.30;99.90;;;;;;5087932;28;20389;-75
2022/01/02 09:53:56;;;;;;;14.40;6.65;;;11.30;99.90;;;;;;5087562;28;20073;-75
2022/01/02 09:56:22;;;;;;;11.65;6.00;;;11.30;99.90;;;;;;5070891;28;20044;-75
2022/01/02 09:58:48;;;;;;;;;;;11.30;99.90;;;;;;5087929;28;20055;-75
2022/01/02 10:01:32;;;;;;;13.73;6.00;;;11.30;99.90;;;;;;5104828;28;20368;-75
2022/01/02 10:03:59;;;;;;;13.30;5.70;;;11.30;99.90;;;;;;5071001;28;20044;-75
2022/01/02 10:06:41;;;;;;;13.57;6.20;;;11.30;99.90;;;;;;5087300;28;20044;-76
2022/01/02 10:09:35;;;;;;;13.10;6.93;;;11.30;99.90;;;;;;5087714;28;20120;-76
2022/01/02 10:12:23;;;;;;;13.88;6.07;;;11.30;99.90;;;;;;5089803;28;20098;-76
2022/01/02 10:15:11;;;;;;;;;;;11.20;99.90;;;;;;5075472;28;20635;-75
2022/01/02 10:17:58;;;;;;;17.80;6.38;;;11.20;99.90;;;;;;5066161;28;19916;-75
2022/01/02 10:20:40;;;;;;;14.13;6.97;;;11.30;99.90;;;;;;5091322;28;20123;-76
2022/01/02 10:23:16;;;;;;;14.45;6.75;;;11.30;99.90;;;;;;5091419;28;20058;-75
2022/01/02 10:25:59;;;;;;;13.87;7.60;;;11.30;99.90;;;;;;5076953;28;20059;-75
2022/01/02 10:28:29;;;;;;;14.02;8.43;;;11.30;99.90;;;;;;5111239;28;20108;-76
2022/01/02 10:31:07;;;;;;;11.77;6.47;;;11.30;99.90;;;;;;5094817;28;20077;-75
2022/01/02 10:33:54;;;;;;;15.10;8.05;;;11.40;99.90;;;;;;5094092;28;20076;-76
2022/01/02 10:36:40;;;;;;;16.27;7.32;;;11.40;99.90;;;;;;5094446;28;20460;-76
2022/01/02 10:39:10;;;;;;;21.02;7.93;;;11.40;99.90;;;;;;5094760;28;20077;-76
2022/01/02 10:41:39;;;;;;;11.27;7.75;;;11.40;99.90;;;;;;5077151;28;20074;-76
2022/01/02 10:44:34;;;;;;;13.85;7.03;;;11.40;99.90;;;;;;5094343;28;20083;-76
2022/01/02 10:47:24;;;;;;;14.25;7.25;;;11.40;99.90;;;;;;5111993;28;20039;-76
2022/01/02 10:50:03;;;;;;;29.27;8.77;;;11.40;99.90;;;;;;5094756;28;20031;-77
2022/01/02 10:52:45;;;;;;;13.90;6.50;;;11.40;99.90;;;;;;5094392;28;20048;-76
2022/01/02 10:55:15;;;;;;;12.00;6.07;;;11.50;99.90;;;;;;5094697;28;20047;-76
2022/01/02 10:57:42;;;;;;;17.77;6.68;;;11.50;99.90;;;;;;5094466;28;20490;-76
2022/01/02 11:00:10;;;;;;;13.25;6.30;;;11.50;99.90;;;;;;5094559;28;20053;-77
2022/01/02 11:02:37;;;;;;;13.38;6.20;;;11.50;99.90;;;;;;5076853;28;20044;-76
2022/01/02 11:05:10;;;;;;;15.38;6.45;;;11.50;99.90;;;;;;5094445;28;20036;-76
2022/01/02 11:07:41;;;;;;;10.55;5.07;;;11.60;99.90;;;;;;5094055;28;20047;-77
2022/01/02 11:10:09;;;;;;;11.45;5.40;;;11.50;99.90;;;;;;5094033;28;20047;-77
2022/01/02 11:12:36;;;;;;;11.63;5.15;;;11.60;99.90;;;;;;5077047;28;20180;-76
2022/01/02 11:15:02;;;;;;;12.70;5.25;;;11.60;99.90;;;;;;5094091;28;20295;-77
2022/01/02 11:17:28;;;;;;;12.70;4.57;;;11.60;99.90;;;;;;5077077;28;20426;-78
2022/01/02 11:19:54;;;;;;;8.57;4.30;;;11.60;99.90;;;;;;5077344;28;20045;-77
2022/01/02 11:22:33;;;;;;;12.00;4.50;;;11.70;99.90;;;;;;5075987;28;20048;-76
2022/01/02 11:25:12;;;;;;;11.18;4.55;;;11.80;99.90;;;;;;5094107;28;20077;-77
2022/01/02 11:27:58;;;;;;;13.02;4.60;;;11.90;99.90;;;;;;5093029;28;20125;-77
2022/01/02 11:30:33;;;;;;;13.98;4.25;;;11.90;99.90;;;;;;5076925;28;20039;-78
2022/01/02 11:33:03;;;;;;;9.93;4.30;;;11.90;99.90;;;;;;5093639;28;20047;-78
2022/01/02 11:35:33;;;;;;;13.63;4.78;;;11.90;99.90;;;;;;5093784;28;20043;-78
2022/01/02 11:38:02;;;;;;;12.70;4.20;;;11.80;99.90;;;;;;5093641;28;20097;-78
2022/01/02 11:40:46;;;;;;;11.80;4.82;;;11.80;99.90;;;;;;5076885;28;20047;-77
2022/01/02 11:43:38;;;;;;;9.95;4.28;;;11.80;99.90;;;;;;5093580;28;20093;-78
2022/01/02 11:46:21;;;;;;;11.07;4.60;;;11.80;99.90;;;;;;5093364;28;20047;-78
2022/01/02 11:49:08;;;;;;;9.10;3.80;;;11.80;99.90;;;;;;5093502;28;20043;-78
2022/01/02 11:51:53;;;;;;;9.43;4.10;;;11.80;99.90;;;;;;5093256;28;20047;-77
2022/01/02 11:54:28;;;;;;;11.50;4.15;;;11.80;99.90;;;;;;5093248;28;20039;-77
2022/01/02 11:56:55;;;;;;;13.85;4.78;;;11.90;99.90;;;;;;5093016;28;20054;-77
2022/01/02 11:59:39;;;;;;;13.93;4.35;;;11.80;99.90;;;;;;5093810;28;20531;-78
2022/01/02 12:02:13;;;;;;;12.60;3.88;;;11.80;99.90;;;;;;5077629;28;20050;-78
2022/01/02 12:07:41;;;;;;;8.38;3.72;;;11.80;99.90;;;;;;5092982;28;20043;-78
2022/01/02 12:10:16;;;;;;;15.20;3.70;;;11.80;99.90;;;;;;5093512;28;20355;-77
2022/01/02 12:13:05;;;;;;;16.17;3.72;;;11.80;99.90;;;;;;5092556;28;20132;-76
2022/01/02 12:15:34;;;;;;;13.23;3.53;;;11.80;99.90;;;;;;5075346;28;20076;-77
2022/01/02 12:18:19;;;;;;;13.10;3.80;;;11.70;99.90;;;;;;5075962;28;20118;-77
2022/01/02 12:20:51;;;;;;;11.90;3.03;;;11.70;99.90;;;;;;5109787;28;20515;-78
2022/01/02 12:23:35;;;;;;;14.63;3.95;;;11.70;99.90;;;;;;5075672;28;20039;-79
2022/01/02 12:26:28;;;;;;;14.85;3.35;;;11.70;99.90;;;;;;5092415;28;20043;-78
2022/01/02 12:28:58;;;;;;;13.82;3.38;;;11.70;99.90;;;;;;5088892;28;20481;-78
2022/01/02 12:31:42;;;;;;;9.15;3.35;;;11.70;99.90;;;;;;5092458;28;20097;-78
2022/01/02 12:34:17;;;;;;;12.30;2.70;;;11.70;99.90;;;;;;5092525;28;20723;-77
2022/01/02 12:36:48;;;;;;;15.10;3.20;;;11.60;99.90;;;;;;5074920;28;20172;-79
2022/01/02 12:39:15;;;;;;;19.55;3.13;;;11.60;99.90;;;;;;5092876;28;20126;-78
2022/01/02 12:41:43;;;;;;;17.40;2.85;;;11.60;99.90;;;;;;5074844;28;20043;-78
2022/01/02 12:44:10;;;;;;;11.05;2.83;;;11.60;99.90;;;;;;5075520;28;20502;-77
2022/01/02 12:46:37;;;;;;;6.50;2.20;;;11.60;99.90;;;;;;5091840;28;20101;-77
2022/01/02 12:49:09;;;;;;;12.07;2.17;;;11.60;99.90;;;;;;5091933;28;20140;-77
2022/01/02 12:51:38;;;;;;;12.13;2.63;;;11.60;99.90;;;;;;5091343;28;20053;-77
2022/01/02 12:54:05;;;;;;;14.05;2.30;;;11.60;99.90;;;;;;5092155;28;20126;-77
2022/01/02 12:56:33;;;;;;;12.90;2.85;;;11.60;99.90;;;;;;5074343;28;20062;-77
2022/01/02 12:59:23;;;;;;;12.52;2.72;;;11.60;99.90;;;;;;5074968;28;20075;-77